sensor_id;sensor_type;location;lat;lon;timestamp;P1;durP1;ratioP1;P2;durP2;ratioP2
56680;SDS011;42558;52.388;13.390;2023-04-04T00:01:34;6.84;;;2.66;;
56680;SDS011;42558;52.388;13.390;2023-04-04T00:04:04;8.93;;;2.66;;
56680;SDS011;42558;52.388;13.390;2023-04-04T00:06:34;9.12;;;3.04;;
56680;SDS011;42558;52.388;13.390;2023-04-04T00:09:05;6.08;;;2.28;;
56680;SDS011;42558;52.388;13.390;2023-04-04T00:11:35;7.41;;;2.28;;
56680;SDS011;42558;52.388;13.390;2023-04-04T00:14:05;7.03;;;2.09;;
56680;SDS011;42558;52.388;13.390;2023-04-04T00:16:35;11.21;;;2.85;;
56680;SDS011;42558;52.388;13.390;2023-04-04T00:19:05;8.55;;;2.66;;
56680;SDS011;42558;52.388;13.390;2023-04-04T00:21:35;8.74;;;2.66;;
56680;SDS011;42558;52.388;13.390;2023-04-04T00:24:05;8.55;;;2.47;;
56680;SDS011;42558;52.388;13.390;2023-04-04T00:26:36;8.74;;;1.90;;
56680;SDS011;42558;52.388;13.390;2023-04-04T00:29:06;10.07;;;3.04;;
56680;SDS011;42558;52.388;13.390;2023-04-04T00:31:36;8.74;;;2.28;;
56680;SDS011;42558;52.388;13.390;2023-04-04T00:34:06;6.84;;;2.09;;
56680;SDS011;42558;52.388;13.390;2023-04-04T00:36:36;8.55;;;1.90;;
56680;SDS011;42558;52.388;13.390;2023-04-04T00:39:06;6.84;;;1.90;;
56680;SDS011;42558;52.388;13.390;2023-04-04T00:41:36;9.69;;;2.47;;
56680;SDS011;42558;52.388;13.390;2023-04-04T00:44:07;12.16;;;2.66;;
56680;SDS011;42558;52.388;13.390;2023-04-04T00:46:36;8.55;;;2.28;;
56680;SDS011;42558;52.388;13.390;2023-04-04T00:49:06;7.60;;;2.09;;
56680;SDS011;42558;52.388;13.390;2023-04-04T00:51:36;15.01;;;3.23;;
56680;SDS011;42558;52.388;13.390;2023-04-04T00:54:06;7.79;;;2.28;;
56680;SDS011;42558;52.388;13.390;2023-04-04T00:56:36;6.46;;;1.90;;
56680;SDS011;42558;52.388;13.390;2023-04-04T00:59:07;7.41;;;2.47;;
56680;SDS011;42558;52.388;13.390;2023-04-04T01:01:36;8.55;;;2.66;;
56680;SDS011;42558;52.388;13.390;2023-04-04T01:04:04;9.31;;;2.47;;
56680;SDS011;42558;52.388;13.390;2023-04-04T01:06:33;8.36;;;2.28;;
56680;SDS011;42558;52.388;13.390;2023-04-04T01:09:01;7.22;;;1.90;;
56680;SDS011;42558;52.388;13.390;2023-04-04T01:11:30;6.08;;;1.90;;
56680;SDS011;42558;52.388;13.390;2023-04-04T01:13:58;10.45;;;3.23;;
56680;SDS011;42558;52.388;13.390;2023-04-04T01:16:26;6.46;;;2.66;;
56680;SDS011;42558;52.388;13.390;2023-04-04T01:18:55;12.73;;;3.80;;
56680;SDS011;42558;52.388;13.390;2023-04-04T01:21:24;10.83;;;3.23;;
56680;SDS011;42558;52.388;13.390;2023-04-04T01:24:00;11.59;;;2.28;;
56680;SDS011;42558;52.388;13.390;2023-04-04T01:26:30;11.21;;;3.04;;
56680;SDS011;42558;52.388;13.390;2023-04-04T01:28:58;9.31;;;2.47;;
56680;SDS011;42558;52.388;13.390;2023-04-04T01:31:39;8.36;;;2.66;;
56680;SDS011;42558;52.388;13.390;2023-04-04T01:34:27;10.45;;;2.66;;
56680;SDS011;42558;52.388;13.390;2023-04-04T01:40:24;6.84;;;2.47;;
56680;SDS011;42558;52.388;13.390;2023-04-04T01:42:56;7.22;;;2.09;;
56680;SDS011;42558;52.388;13.390;2023-04-04T01:45:27;7.41;;;2.47;;
56680;SDS011;42558;52.388;13.390;2023-04-04T01:47:57;7.79;;;2.85;;
56680;SDS011;42558;52.388;13.390;2023-04-04T01:50:27;11.40;;;3.04;;
56680;SDS011;42558;52.388;13.390;2023-04-04T01:52:57;8.55;;;2.28;;
56680;SDS011;42558;52.388;13.390;2023-04-04T01:55:27;8.74;;;2.47;;
56680;SDS011;42558;52.388;13.390;2023-04-04T01:57:57;11.21;;;3.23;;
56680;SDS011;42558;52.388;13.390;2023-04-04T02:00:27;10.83;;;2.85;;
56680;SDS011;42558;52.388;13.390;2023-04-04T02:02:57;9.69;;;2.85;;
56680;SDS011;42558;52.388;13.390;2023-04-04T02:05:27;6.84;;;2.09;;
56680;SDS011;42558;52.388;13.390;2023-04-04T02:07:57;9.31;;;3.04;;
56680;SDS011;42558;52.388;13.390;2023-04-04T02:10:28;9.31;;;3.61;;
56680;SDS011;42558;52.388;13.390;2023-04-04T02:12:58;8.17;;;2.47;;
56680;SDS011;42558;52.388;13.390;2023-04-04T02:15:28;10.26;;;3.42;;
56680;SDS011;42558;52.388;13.390;2023-04-04T02:17:57;15.01;;;2.85;;
56680;SDS011;42558;52.388;13.390;2023-04-04T02:20:28;8.17;;;2.47;;
56680;SDS011;42558;52.388;13.390;2023-04-04T02:22:58;12.35;;;3.61;;
56680;SDS011;42558;52.388;13.390;2023-04-04T02:25:27;7.79;;;2.66;;
56680;SDS011;42558;52.388;13.390;2023-04-04T02:27:57;9.50;;;3.04;;
56680;SDS011;42558;52.388;13.390;2023-04-04T02:30:27;12.54;;;3.61;;
56680;SDS011;42558;52.388;13.390;2023-04-04T02:32:57;11.78;;;4.18;;
56680;SDS011;42558;52.388;13.390;2023-04-04T02:35:27;7.79;;;3.04;;
56680;SDS011;42558;52.388;13.390;2023-04-04T02:37:57;10.83;;;4.37;;
56680;SDS011;42558;52.388;13.390;2023-04-04T02:40:27;12.54;;;4.37;;
56680;SDS011;42558;52.388;13.390;2023-04-04T02:42:56;11.78;;;3.61;;
56680;SDS011;42558;52.388;13.390;2023-04-04T02:45:24;10.64;;;3.80;;
56680;SDS011;42558;52.388;13.390;2023-04-04T02:47:52;7.79;;;3.42;;
56680;SDS011;42558;52.388;13.390;2023-04-04T02:50:21;14.63;;;4.56;;
56680;SDS011;42558;52.388;13.390;2023-04-04T02:52:49;8.55;;;3.61;;
56680;SDS011;42558;52.388;13.390;2023-04-04T02:55:18;8.55;;;3.42;;
56680;SDS011;42558;52.388;13.390;2023-04-04T02:57:50;9.50;;;3.61;;
56680;SDS011;42558;52.388;13.390;2023-04-04T03:00:18;11.40;;;3.99;;
56680;SDS011;42558;52.388;13.390;2023-04-04T03:02:54;7.98;;;3.23;;
56680;SDS011;42558;52.388;13.390;2023-04-04T03:05:25;11.78;;;3.61;;
56680;SDS011;42558;52.388;13.390;2023-04-04T03:07:56;9.31;;;3.04;;
56680;SDS011;42558;52.388;13.390;2023-04-04T03:10:28;11.21;;;3.61;;
56680;SDS011;42558;52.388;13.390;2023-04-04T03:12:57;8.36;;;3.23;;
56680;SDS011;42558;52.388;13.390;2023-04-04T03:15:27;11.02;;;3.04;;
56680;SDS011;42558;52.388;13.390;2023-04-04T03:17:57;8.55;;;3.61;;
56680;SDS011;42558;52.388;13.390;2023-04-04T03:20:28;8.74;;;3.42;;
56680;SDS011;42558;52.388;13.390;2023-04-04T03:22:58;7.60;;;2.85;;
56680;SDS011;42558;52.388;13.390;2023-04-04T03:25:28;11.97;;;3.23;;
56680;SDS011;42558;52.388;13.390;2023-04-04T03:28:09;11.02;;;3.42;;
56680;SDS011;42558;52.388;13.390;2023-04-04T03:30:39;10.64;;;3.04;;
56680;SDS011;42558;52.388;13.390;2023-04-04T03:33:07;9.88;;;3.42;;
56680;SDS011;42558;52.388;13.390;2023-04-04T03:35:38;10.83;;;3.04;;
56680;SDS011;42558;52.388;13.390;2023-04-04T03:38:08;7.98;;;3.23;;
56680;SDS011;42558;52.388;13.390;2023-04-04T03:40:36;10.83;;;3.23;;
56680;SDS011;42558;52.388;13.390;2023-04-04T03:43:08;13.11;;;3.23;;
56680;SDS011;42558;52.388;13.390;2023-04-04T03:45:36;11.97;;;5.13;;
56680;SDS011;42558;52.388;13.390;2023-04-04T03:48:05;16.15;;;4.75;;
56680;SDS011;42558;52.388;13.390;2023-04-04T03:50:34;9.69;;;3.80;;
56680;SDS011;42558;52.388;13.390;2023-04-04T03:53:04;7.03;;;3.61;;
56680;SDS011;42558;52.388;13.390;2023-04-04T03:55:33;11.21;;;3.42;;
56680;SDS011;42558;52.388;13.390;2023-04-04T03:58:01;9.50;;;3.61;;
56680;SDS011;42558;52.388;13.390;2023-04-04T04:00:31;8.93;;;3.23;;
56680;SDS011;42558;52.388;13.390;2023-04-04T04:03:01;12.35;;;4.37;;
56680;SDS011;42558;52.388;13.390;2023-04-04T04:05:31;15.77;;;4.18;;
56680;SDS011;42558;52.388;13.390;2023-04-04T04:08:01;11.97;;;4.18;;
56680;SDS011;42558;52.388;13.390;2023-04-04T04:10:32;9.31;;;3.80;;
56680;SDS011;42558;52.388;13.390;2023-04-04T04:13:01;11.40;;;3.80;;
56680;SDS011;42558;52.388;13.390;2023-04-04T04:15:31;8.36;;;3.99;;
56680;SDS011;42558;52.388;13.390;2023-04-04T04:18:01;9.50;;;3.42;;
56680;SDS011;42558;52.388;13.390;2023-04-04T04:20:31;10.64;;;3.42;;
56680;SDS011;42558;52.388;13.390;2023-04-04T04:23:01;9.31;;;3.42;;
56680;SDS011;42558;52.388;13.390;2023-04-04T04:25:31;11.59;;;3.61;;
56680;SDS011;42558;52.388;13.390;2023-04-04T04:28:01;9.31;;;3.80;;
56680;SDS011;42558;52.388;13.390;2023-04-04T04:30:31;9.50;;;3.61;;
56680;SDS011;42558;52.388;13.390;2023-04-04T04:33:01;10.64;;;3.42;;
56680;SDS011;42558;52.388;13.390;2023-04-04T04:35:35;11.40;;;4.56;;
56680;SDS011;42558;52.388;13.390;2023-04-04T04:38:05;8.17;;;3.99;;
56680;SDS011;42558;52.388;13.390;2023-04-04T04:40:35;11.21;;;4.37;;
56680;SDS011;42558;52.388;13.390;2023-04-04T04:43:05;11.97;;;4.18;;
56680;SDS011;42558;52.388;13.390;2023-04-04T04:45:35;13.30;;;4.18;;
56680;SDS011;42558;52.388;13.390;2023-04-04T04:48:05;13.49;;;3.61;;
56680;SDS011;42558;52.388;13.390;2023-04-04T04:50:35;10.64;;;3.80;;
56680;SDS011;42558;52.388;13.390;2023-04-04T04:53:05;11.78;;;3.80;;
56680;SDS011;42558;52.388;13.390;2023-04-04T04:55:36;9.88;;;3.23;;
56680;SDS011;42558;52.388;13.390;2023-04-04T04:58:06;11.21;;;3.61;;
56680;SDS011;42558;52.388;13.390;2023-04-04T05:00:36;10.45;;;4.18;;
56680;SDS011;42558;52.388;13.390;2023-04-04T05:03:06;12.16;;;3.80;;
56680;SDS011;42558;52.388;13.390;2023-04-04T05:05:36;15.01;;;4.94;;
56680;SDS011;42558;52.388;13.390;2023-04-04T05:08:06;8.93;;;3.80;;
56680;SDS011;42558;52.388;13.390;2023-04-04T05:10:36;12.54;;;3.61;;
56680;SDS011;42558;52.388;13.390;2023-04-04T05:13:06;11.97;;;3.99;;
56680;SDS011;42558;52.388;13.390;2023-04-04T05:15:37;15.96;;;4.94;;
56680;SDS011;42558;52.388;13.390;2023-04-04T05:18:07;11.40;;;4.94;;
56680;SDS011;42558;52.388;13.390;2023-04-04T05:20:37;12.16;;;3.42;;
56680;SDS011;42558;52.388;13.390;2023-04-04T05:23:07;10.45;;;4.56;;
56680;SDS011;42558;52.388;13.390;2023-04-04T05:25:37;11.21;;;4.37;;
56680;SDS011;42558;52.388;13.390;2023-04-04T05:28:07;11.59;;;3.99;;
56680;SDS011;42558;52.388;13.390;2023-04-04T05:30:37;17.10;;;5.32;;
56680;SDS011;42558;52.388;13.390;2023-04-04T05:33:07;11.59;;;4.37;;
56680;SDS011;42558;52.388;13.390;2023-04-04T05:35:37;14.44;;;5.13;;
56680;SDS011;42558;52.388;13.390;2023-04-04T05:38:07;15.58;;;5.32;;
56680;SDS011;42558;52.388;13.390;2023-04-04T05:40:37;13.87;;;3.99;;
56680;SDS011;42558;52.388;13.390;2023-04-04T05:43:07;10.64;;;3.61;;
56680;SDS011;42558;52.388;13.390;2023-04-04T05:45:37;10.45;;;3.80;;
56680;SDS011;42558;52.388;13.390;2023-04-04T05:48:08;12.54;;;4.18;;
56680;SDS011;42558;52.388;13.390;2023-04-04T05:50:38;12.35;;;4.18;;
56680;SDS011;42558;52.388;13.390;2023-04-04T05:53:08;11.78;;;3.80;;
56680;SDS011;42558;52.388;13.390;2023-04-04T05:55:38;14.82;;;4.94;;
56680;SDS011;42558;52.388;13.390;2023-04-04T05:58:08;15.39;;;4.94;;
56680;SDS011;42558;52.388;13.390;2023-04-04T06:00:38;13.30;;;4.94;;
56680;SDS011;42558;52.388;13.390;2023-04-04T06:03:08;11.21;;;3.80;;
56680;SDS011;42558;52.388;13.390;2023-04-04T06:05:41;14.44;;;5.13;;
56680;SDS011;42558;52.388;13.390;2023-04-04T06:08:10;12.92;;;3.99;;
56680;SDS011;42558;52.388;13.390;2023-04-04T06:10:40;12.35;;;3.80;;
56680;SDS011;42558;52.388;13.390;2023-04-04T06:13:10;11.97;;;4.37;;
56680;SDS011;42558;52.388;13.390;2023-04-04T06:15:40;13.68;;;4.37;;
56680;SDS011;42558;52.388;13.390;2023-04-04T06:18:08;10.45;;;3.99;;
56680;SDS011;42558;52.388;13.390;2023-04-04T06:20:37;9.12;;;3.61;;
56680;SDS011;42558;52.388;13.390;2023-04-04T06:23:05;11.97;;;2.85;;
56680;SDS011;42558;52.388;13.390;2023-04-04T06:25:35;9.12;;;3.23;;
56680;SDS011;42558;52.388;13.390;2023-04-04T06:28:02;12.73;;;3.42;;
56680;SDS011;42558;52.388;13.390;2023-04-04T06:30:34;12.16;;;2.85;;
56680;SDS011;42558;52.388;13.390;2023-04-04T06:33:05;7.79;;;2.47;;
56680;SDS011;42558;52.388;13.390;2023-04-04T06:35:33;8.93;;;2.47;;
56680;SDS011;42558;52.388;13.390;2023-04-04T06:38:02;8.74;;;2.85;;
56680;SDS011;42558;52.388;13.390;2023-04-04T06:40:34;11.78;;;3.23;;
56680;SDS011;42558;52.388;13.390;2023-04-04T06:43:04;8.17;;;2.28;;
56680;SDS011;42558;52.388;13.390;2023-04-04T06:45:34;7.03;;;2.47;;
56680;SDS011;42558;52.388;13.390;2023-04-04T06:48:04;8.55;;;2.66;;
56680;SDS011;42558;52.388;13.390;2023-04-04T06:50:34;8.36;;;2.47;;
56680;SDS011;42558;52.388;13.390;2023-04-04T06:53:05;10.64;;;3.23;;
56680;SDS011;42558;52.388;13.390;2023-04-04T06:55:35;10.83;;;3.23;;
56680;SDS011;42558;52.388;13.390;2023-04-04T06:58:05;7.41;;;2.66;;
56680;SDS011;42558;52.388;13.390;2023-04-04T07:00:35;10.26;;;2.85;;
56680;SDS011;42558;52.388;13.390;2023-04-04T07:03:05;11.40;;;2.85;;
56680;SDS011;42558;52.388;13.390;2023-04-04T07:05:36;7.41;;;1.90;;
56680;SDS011;42558;52.388;13.390;2023-04-04T07:08:08;10.64;;;2.28;;
56680;SDS011;42558;52.388;13.390;2023-04-04T07:10:38;5.13;;;1.71;;
56680;SDS011;42558;52.388;13.390;2023-04-04T07:13:09;9.69;;;1.90;;
56680;SDS011;42558;52.388;13.390;2023-04-04T07:15:39;8.55;;;2.28;;
56680;SDS011;42558;52.388;13.390;2023-04-04T07:18:15;11.59;;;2.85;;
56680;SDS011;42558;52.388;13.390;2023-04-04T07:20:45;8.74;;;2.66;;
56680;SDS011;42558;52.388;13.390;2023-04-04T07:23:16;9.12;;;2.66;;
56680;SDS011;42558;52.388;13.390;2023-04-04T07:25:46;11.59;;;2.66;;
56680;SDS011;42558;52.388;13.390;2023-04-04T07:28:16;6.27;;;1.90;;
56680;SDS011;42558;52.388;13.390;2023-04-04T07:30:46;14.25;;;4.56;;
56680;SDS011;42558;52.388;13.390;2023-04-04T07:33:15;9.50;;;3.23;;
56680;SDS011;42558;52.388;13.390;2023-04-04T07:35:45;8.93;;;2.66;;
56680;SDS011;42558;52.388;13.390;2023-04-04T07:38:15;8.93;;;2.47;;
56680;SDS011;42558;52.388;13.390;2023-04-04T07:40:48;7.98;;;2.47;;
56680;SDS011;42558;52.388;13.390;2023-04-04T07:43:18;7.03;;;2.28;;
56680;SDS011;42558;52.388;13.390;2023-04-04T07:45:48;10.64;;;2.85;;
56680;SDS011;42558;52.388;13.390;2023-04-04T07:48:18;6.27;;;2.28;;
56680;SDS011;42558;52.388;13.390;2023-04-04T07:50:51;6.84;;;2.47;;
56680;SDS011;42558;52.388;13.390;2023-04-04T07:53:21;9.12;;;2.47;;
56680;SDS011;42558;52.388;13.390;2023-04-04T07:55:51;7.60;;;2.47;;
56680;SDS011;42558;52.388;13.390;2023-04-04T07:58:21;11.40;;;2.66;;
56680;SDS011;42558;52.388;13.390;2023-04-04T08:00:51;10.64;;;3.04;;
56680;SDS011;42558;52.388;13.390;2023-04-04T08:03:21;11.59;;;3.04;;
56680;SDS011;42558;52.388;13.390;2023-04-04T08:05:52;8.55;;;2.28;;
56680;SDS011;42558;52.388;13.390;2023-04-04T08:08:22;8.17;;;2.85;;
56680;SDS011;42558;52.388;13.390;2023-04-04T08:10:52;6.65;;;2.47;;
56680;SDS011;42558;52.388;13.390;2023-04-04T08:13:22;7.22;;;2.66;;
56680;SDS011;42558;52.388;13.390;2023-04-04T08:15:52;8.36;;;2.47;;
56680;SDS011;42558;52.388;13.390;2023-04-04T08:18:22;7.22;;;2.66;;
56680;SDS011;42558;52.388;13.390;2023-04-04T08:20:51;9.88;;;2.47;;
56680;SDS011;42558;52.388;13.390;2023-04-04T08:23:21;7.60;;;2.09;;
56680;SDS011;42558;52.388;13.390;2023-04-04T08:25:51;7.98;;;2.47;;
56680;SDS011;42558;52.388;13.390;2023-04-04T08:28:21;9.69;;;2.85;;
56680;SDS011;42558;52.388;13.390;2023-04-04T08:30:52;8.36;;;2.47;;
56680;SDS011;42558;52.388;13.390;2023-04-04T08:33:22;9.50;;;2.66;;
56680;SDS011;42558;52.388;13.390;2023-04-04T08:36:02;10.83;;;3.42;;
56680;SDS011;42558;52.388;13.390;2023-04-04T08:38:33;8.55;;;2.66;;
56680;SDS011;42558;52.388;13.390;2023-04-04T08:41:03;9.31;;;2.47;;
56680;SDS011;42558;52.388;13.390;2023-04-04T08:43:33;9.50;;;3.23;;
56680;SDS011;42558;52.388;13.390;2023-04-04T08:46:07;11.59;;;3.04;;
56680;SDS011;42558;52.388;13.390;2023-04-04T08:48:41;8.74;;;2.85;;
56680;SDS011;42558;52.388;13.390;2023-04-04T08:51:14;8.55;;;2.47;;
56680;SDS011;42558;52.388;13.390;2023-04-04T08:53:47;8.36;;;2.47;;
56680;SDS011;42558;52.388;13.390;2023-04-04T08:56:17;11.02;;;3.42;;
56680;SDS011;42558;52.388;13.390;2023-04-04T08:58:48;10.07;;;2.47;;
56680;SDS011;42558;52.388;13.390;2023-04-04T09:01:18;7.41;;;2.28;;
56680;SDS011;42558;52.388;13.390;2023-04-04T09:03:48;7.22;;;2.66;;
56680;SDS011;42558;52.388;13.390;2023-04-04T09:06:19;6.46;;;2.28;;
56680;SDS011;42558;52.388;13.390;2023-04-04T09:08:47;9.69;;;2.47;;
56680;SDS011;42558;52.388;13.390;2023-04-04T09:11:18;8.55;;;2.66;;
56680;SDS011;42558;52.388;13.390;2023-04-04T09:13:49;8.17;;;2.85;;
56680;SDS011;42558;52.388;13.390;2023-04-04T09:16:20;5.51;;;2.09;;
56680;SDS011;42558;52.388;13.390;2023-04-04T09:18:51;9.12;;;2.85;;
56680;SDS011;42558;52.388;13.390;2023-04-04T09:21:21;8.93;;;2.66;;
56680;SDS011;42558;52.388;13.390;2023-04-04T09:23:59;6.84;;;2.66;;
56680;SDS011;42558;52.388;13.390;2023-04-04T09:26:49;6.65;;;2.28;;
56680;SDS011;42558;52.388;13.390;2023-04-04T09:29:21;7.79;;;2.47;;
56680;SDS011;42558;52.388;13.390;2023-04-04T09:31:51;10.83;;;2.47;;
56680;SDS011;42558;52.388;13.390;2023-04-04T09:34:21;6.46;;;2.47;;
56680;SDS011;42558;52.388;13.390;2023-04-04T09:36:52;10.83;;;3.04;;
56680;SDS011;42558;52.388;13.390;2023-04-04T09:39:22;7.03;;;2.28;;
56680;SDS011;42558;52.388;13.390;2023-04-04T09:41:52;7.03;;;1.90;;
56680;SDS011;42558;52.388;13.390;2023-04-04T09:44:24;10.07;;;2.09;;
56680;SDS011;42558;52.388;13.390;2023-04-04T09:50:01;8.17;;;2.85;;
56680;SDS011;42558;52.388;13.390;2023-04-04T09:52:33;7.03;;;2.66;;
56680;SDS011;42558;52.388;13.390;2023-04-04T09:55:04;9.31;;;2.66;;
56680;SDS011;42558;52.388;13.390;2023-04-04T09:57:35;10.07;;;2.85;;
56680;SDS011;42558;52.388;13.390;2023-04-04T10:00:06;7.03;;;2.47;;
56680;SDS011;42558;52.388;13.390;2023-04-04T10:02:39;11.02;;;3.23;;
56680;SDS011;42558;52.388;13.390;2023-04-04T10:05:15;7.60;;;2.66;;
56680;SDS011;42558;52.388;13.390;2023-04-04T10:07:46;8.55;;;2.85;;
56680;SDS011;42558;52.388;13.390;2023-04-04T10:10:16;12.54;;;2.85;;
56680;SDS011;42558;52.388;13.390;2023-04-04T10:12:46;7.41;;;2.66;;
56680;SDS011;42558;52.388;13.390;2023-04-04T10:15:16;7.60;;;2.66;;
56680;SDS011;42558;52.388;13.390;2023-04-04T10:17:47;7.98;;;2.47;;
56680;SDS011;42558;52.388;13.390;2023-04-04T10:20:21;8.93;;;2.85;;
56680;SDS011;42558;52.388;13.390;2023-04-04T10:22:51;7.98;;;2.66;;
56680;SDS011;42558;52.388;13.390;2023-04-04T10:25:20;8.74;;;3.04;;
56680;SDS011;42558;52.388;13.390;2023-04-04T10:27:48;7.03;;;2.47;;
56680;SDS011;42558;52.388;13.390;2023-04-04T10:30:20;9.12;;;3.80;;
56680;SDS011;42558;52.388;13.390;2023-04-04T10:33:09;9.12;;;3.23;;
56680;SDS011;42558;52.388;13.390;2023-04-04T10:35:46;9.50;;;3.61;;
56680;SDS011;42558;52.388;13.390;2023-04-04T10:38:24;11.78;;;2.66;;
56680;SDS011;42558;52.388;13.390;2023-04-04T10:40:58;10.07;;;2.47;;
56680;SDS011;42558;52.388;13.390;2023-04-04T10:43:31;8.93;;;3.04;;
56680;SDS011;42558;52.388;13.390;2023-04-04T10:46:15;7.98;;;2.85;;
56680;SDS011;42558;52.388;13.390;2023-04-04T10:48:49;11.02;;;3.23;;
56680;SDS011;42558;52.388;13.390;2023-04-04T10:51:19;8.17;;;2.85;;
56680;SDS011;42558;52.388;13.390;2023-04-04T10:53:49;9.88;;;2.66;;
56680;SDS011;42558;52.388;13.390;2023-04-04T10:56:21;9.12;;;3.61;;
56680;SDS011;42558;52.388;13.390;2023-04-04T10:59:08;6.46;;;2.47;;
56680;SDS011;42558;52.388;13.390;2023-04-04T11:01:58;6.84;;;3.04;;
56680;SDS011;42558;52.388;13.390;2023-04-04T11:04:36;5.89;;;2.09;;
56680;SDS011;42558;52.388;13.390;2023-04-04T11:07:12;8.74;;;2.28;;
56680;SDS011;42558;52.388;13.390;2023-04-04T11:09:52;7.98;;;2.66;;
56680;SDS011;42558;52.388;13.390;2023-04-04T11:12:22;10.26;;;2.66;;
56680;SDS011;42558;52.388;13.390;2023-04-04T11:15:06;8.55;;;2.47;;
56680;SDS011;42558;52.388;13.390;2023-04-04T11:20:22;6.84;;;2.28;;
56680;SDS011;42558;52.388;13.390;2023-04-04T11:23:16;8.17;;;2.66;;
56680;SDS011;42558;52.388;13.390;2023-04-04T11:25:55;8.74;;;2.47;;
56680;SDS011;42558;52.388;13.390;2023-04-04T11:39:34;6.27;;;2.66;;
56680;SDS011;42558;52.388;13.390;2023-04-04T11:42:19;7.60;;;2.66;;
56680;SDS011;42558;52.388;13.390;2023-04-04T11:47:22;8.55;;;2.28;;
56680;SDS011;42558;52.388;13.390;2023-04-04T11:49:54;8.93;;;2.85;;
56680;SDS011;42558;52.388;13.390;2023-04-04T11:52:24;8.17;;;3.04;;
56680;SDS011;42558;52.388;13.390;2023-04-04T11:54:54;6.84;;;2.85;;
56680;SDS011;42558;52.388;13.390;2023-04-04T11:57:24;6.27;;;2.28;;
56680;SDS011;42558;52.388;13.390;2023-04-04T11:59:54;9.69;;;2.85;;
56680;SDS011;42558;52.388;13.390;2023-04-04T12:02:25;6.84;;;2.47;;
56680;SDS011;42558;52.388;13.390;2023-04-04T12:04:56;8.36;;;2.85;;
56680;SDS011;42558;52.388;13.390;2023-04-04T12:07:28;10.07;;;3.61;;
56680;SDS011;42558;52.388;13.390;2023-04-04T12:09:56;6.27;;;2.47;;
56680;SDS011;42558;52.388;13.390;2023-04-04T12:12:25;7.98;;;2.66;;
56680;SDS011;42558;52.388;13.390;2023-04-04T12:14:56;6.65;;;2.47;;
56680;SDS011;42558;52.388;13.390;2023-04-04T12:17:45;7.03;;;2.09;;
56680;SDS011;42558;52.388;13.390;2023-04-04T12:20:21;6.84;;;2.28;;
56680;SDS011;42558;52.388;13.390;2023-04-04T12:22:52;8.93;;;2.47;;
56680;SDS011;42558;52.388;13.390;2023-04-04T12:25:22;7.60;;;2.28;;
56680;SDS011;42558;52.388;13.390;2023-04-04T12:27:54;6.08;;;2.28;;
56680;SDS011;42558;52.388;13.390;2023-04-04T12:30:25;7.79;;;2.85;;
56680;SDS011;42558;52.388;13.390;2023-04-04T12:32:56;7.22;;;2.28;;
56680;SDS011;42558;52.388;13.390;2023-04-04T12:35:26;6.46;;;2.47;;
56680;SDS011;42558;52.388;13.390;2023-04-04T12:38:04;6.65;;;2.47;;
56680;SDS011;42558;52.388;13.390;2023-04-04T12:40:39;7.79;;;2.66;;
56680;SDS011;42558;52.388;13.390;2023-04-04T12:43:15;8.17;;;2.47;;
56680;SDS011;42558;52.388;13.390;2023-04-04T12:45:49;6.08;;;2.47;;
56680;SDS011;42558;52.388;13.390;2023-04-04T12:48:26;7.22;;;2.28;;
56680;SDS011;42558;52.388;13.390;2023-04-04T12:50:56;6.84;;;2.09;;
56680;SDS011;42558;52.388;13.390;2023-04-04T12:53:27;7.22;;;2.66;;
56680;SDS011;42558;52.388;13.390;2023-04-04T12:56:04;7.22;;;2.47;;
56680;SDS011;42558;52.388;13.390;2023-04-04T12:58:32;6.08;;;1.90;;
56680;SDS011;42558;52.388;13.390;2023-04-04T13:01:03;7.41;;;2.85;;
56680;SDS011;42558;52.388;13.390;2023-04-04T13:03:33;5.89;;;1.90;;
56680;SDS011;42558;52.388;13.390;2023-04-04T13:06:02;6.84;;;2.28;;
56680;SDS011;42558;52.388;13.390;2023-04-04T13:08:30;6.84;;;2.09;;
56680;SDS011;42558;52.388;13.390;2023-04-04T13:11:05;7.41;;;2.09;;
56680;SDS011;42558;52.388;13.390;2023-04-04T13:13:39;6.65;;;1.71;;
56680;SDS011;42558;52.388;13.390;2023-04-04T13:16:28;6.46;;;1.90;;
56680;SDS011;42558;52.388;13.390;2023-04-04T13:19:04;6.46;;;1.52;;
56680;SDS011;42558;52.388;13.390;2023-04-04T13:21:33;8.55;;;2.85;;
56680;SDS011;42558;52.388;13.390;2023-04-04T13:24:02;9.31;;;2.66;;
56680;SDS011;42558;52.388;13.390;2023-04-04T13:26:30;6.46;;;2.09;;
56680;SDS011;42558;52.388;13.390;2023-04-04T13:28:59;6.65;;;2.09;;
56680;SDS011;42558;52.388;13.390;2023-04-04T13:31:27;6.27;;;1.90;;
56680;SDS011;42558;52.388;13.390;2023-04-04T13:33:55;7.60;;;2.47;;
56680;SDS011;42558;52.388;13.390;2023-04-04T13:36:24;5.70;;;2.28;;
56680;SDS011;42558;52.388;13.390;2023-04-04T13:38:55;7.22;;;2.28;;
56680;SDS011;42558;52.388;13.390;2023-04-04T13:41:24;5.89;;;1.90;;
56680;SDS011;42558;52.388;13.390;2023-04-04T13:43:52;6.46;;;1.90;;
56680;SDS011;42558;52.388;13.390;2023-04-04T13:46:21;6.46;;;2.09;;
56680;SDS011;42558;52.388;13.390;2023-04-04T13:48:49;6.46;;;2.28;;
56680;SDS011;42558;52.388;13.390;2023-04-04T13:51:17;6.08;;;2.09;;
56680;SDS011;42558;52.388;13.390;2023-04-04T13:53:46;5.89;;;2.09;;
56680;SDS011;42558;52.388;13.390;2023-04-04T13:56:15;6.46;;;2.47;;
56680;SDS011;42558;52.388;13.390;2023-04-04T13:58:47;7.22;;;2.66;;
56680;SDS011;42558;52.388;13.390;2023-04-04T14:01:20;6.46;;;2.47;;
56680;SDS011;42558;52.388;13.390;2023-04-04T14:03:49;7.41;;;2.28;;
56680;SDS011;42558;52.388;13.390;2023-04-04T14:06:20;9.31;;;2.47;;
56680;SDS011;42558;52.388;13.390;2023-04-04T14:08:49;8.17;;;2.28;;
56680;SDS011;42558;52.388;13.390;2023-04-04T14:11:19;5.51;;;2.09;;
56680;SDS011;42558;52.388;13.390;2023-04-04T14:13:50;10.07;;;2.85;;
56680;SDS011;42558;52.388;13.390;2023-04-04T14:16:20;8.93;;;2.28;;
56680;SDS011;42558;52.388;13.390;2023-04-04T14:18:51;6.65;;;1.90;;
56680;SDS011;42558;52.388;13.390;2023-04-04T14:21:20;7.03;;;2.47;;
56680;SDS011;42558;52.388;13.390;2023-04-04T14:23:50;7.03;;;3.23;;
56680;SDS011;42558;52.388;13.390;2023-04-04T14:26:20;5.13;;;2.09;;
56680;SDS011;42558;52.388;13.390;2023-04-04T14:28:50;8.93;;;1.71;;
56680;SDS011;42558;52.388;13.390;2023-04-04T14:31:20;7.98;;;2.28;;
56680;SDS011;42558;52.388;13.390;2023-04-04T14:33:50;7.22;;;2.66;;
56680;SDS011;42558;52.388;13.390;2023-04-04T14:36:20;8.74;;;2.85;;
56680;SDS011;42558;52.388;13.390;2023-04-04T14:38:50;6.27;;;2.28;;
56680;SDS011;42558;52.388;13.390;2023-04-04T14:41:19;7.41;;;2.28;;
56680;SDS011;42558;52.388;13.390;2023-04-04T14:43:50;7.79;;;1.90;;
56680;SDS011;42558;52.388;13.390;2023-04-04T14:46:20;7.60;;;3.04;;
56680;SDS011;42558;52.388;13.390;2023-04-04T14:48:50;6.65;;;1.71;;
56680;SDS011;42558;52.388;13.390;2023-04-04T14:51:20;6.27;;;2.09;;
56680;SDS011;42558;52.388;13.390;2023-04-04T14:53:50;9.31;;;1.90;;
56680;SDS011;42558;52.388;13.390;2023-04-04T14:56:20;7.22;;;2.09;;
56680;SDS011;42558;52.388;13.390;2023-04-04T14:58:51;6.84;;;2.09;;
56680;SDS011;42558;52.388;13.390;2023-04-04T15:01:21;7.79;;;2.85;;
56680;SDS011;42558;52.388;13.390;2023-04-04T15:03:51;7.60;;;2.66;;
56680;SDS011;42558;52.388;13.390;2023-04-04T15:06:22;8.17;;;1.90;;
56680;SDS011;42558;52.388;13.390;2023-04-04T15:08:52;5.89;;;1.71;;
56680;SDS011;42558;52.388;13.390;2023-04-04T15:11:22;5.51;;;1.71;;
56680;SDS011;42558;52.388;13.390;2023-04-04T15:13:55;6.65;;;2.28;;
56680;SDS011;42558;52.388;13.390;2023-04-04T15:16:25;8.74;;;2.47;;